Terminal Aerodrome Forecast
Issued by NWS

Home | Current Version | Previous Version | Text Only | Print | Product List | Glossary On
Versions: 1 2 3 4 5 6 7 8 9 10 11 12 13 14 15 16 17 18 19 20 21
000
FTUS43 KDMX 061135
TAFFOD
TAF
KFOD 061135Z 0612/0712 29013G19KT P6SM SCT020 BKN080
     FM061500 28015G25KT P6SM FEW025 SCT250
     FM070000 27011KT P6SM SCT200=

USA.gov is the U.S. government's official web portal to all federal, state and local government web resources and services.